sensor_id;sensor_type;location;lat;lon;timestamp;temperature;humidity
15556;DHT22;7879;48.660;9.116;2023-07-20T00:00:30;19.60;93.20
15556;DHT22;7879;48.660;9.116;2023-07-20T00:03:14;19.60;93.50
15556;DHT22;7879;48.660;9.116;2023-07-20T00:05:46;19.40;93.50
15556;DHT22;7879;48.660;9.116;2023-07-20T00:08:13;19.30;93.70
15556;DHT22;7879;48.660;9.116;2023-07-20T00:10:40;19.30;93.90
15556;DHT22;7879;48.660;9.116;2023-07-20T00:13:07;19.30;94.10
15556;DHT22;7879;48.660;9.116;2023-07-20T00:15:34;19.20;94.20
15556;DHT22;7879;48.660;9.116;2023-07-20T00:18:01;19.10;94.30
15556;DHT22;7879;48.660;9.116;2023-07-20T00:20:28;19.10;94.50
15556;DHT22;7879;48.660;9.116;2023-07-20T00:22:55;19.00;94.60
15556;DHT22;7879;48.660;9.116;2023-07-20T00:25:25;19.00;94.70
15556;DHT22;7879;48.660;9.116;2023-07-20T00:27:51;19.00;94.80
15556;DHT22;7879;48.660;9.116;2023-07-20T00:30:18;18.90;95.00
15556;DHT22;7879;48.660;9.116;2023-07-20T00:32:45;18.80;95.10
15556;DHT22;7879;48.660;9.116;2023-07-20T00:35:12;18.80;95.50
15556;DHT22;7879;48.660;9.116;2023-07-20T00:37:40;18.60;96.20
15556;DHT22;7879;48.660;9.116;2023-07-20T00:40:07;18.60;96.50
15556;DHT22;7879;48.660;9.116;2023-07-20T00:42:34;18.60;96.40
15556;DHT22;7879;48.660;9.116;2023-07-20T00:45:00;18.50;96.80
15556;DHT22;7879;48.660;9.116;2023-07-20T00:47:27;18.50;96.90
15556;DHT22;7879;48.660;9.116;2023-07-20T00:49:54;18.50;97.10
15556;DHT22;7879;48.660;9.116;2023-07-20T00:52:23;18.40;97.10
15556;DHT22;7879;48.660;9.116;2023-07-20T00:54:51;18.40;97.50
15556;DHT22;7879;48.660;9.116;2023-07-20T00:57:19;18.20;97.70
15556;DHT22;7879;48.660;9.116;2023-07-20T00:59:45;18.10;98.00
15556;DHT22;7879;48.660;9.116;2023-07-20T01:02:12;18.00;98.30
15556;DHT22;7879;48.660;9.116;2023-07-20T01:04:39;18.00;98.50
15556;DHT22;7879;48.660;9.116;2023-07-20T01:07:19;18.10;98.80
15556;DHT22;7879;48.660;9.116;2023-07-20T01:09:57;17.90;98.90
15556;DHT22;7879;48.660;9.116;2023-07-20T01:12:33;17.90;99.10
15556;DHT22;7879;48.660;9.116;2023-07-20T01:15:02;17.70;99.40
15556;DHT22;7879;48.660;9.116;2023-07-20T01:17:29;17.60;99.40
15556;DHT22;7879;48.660;9.116;2023-07-20T01:19:55;17.50;99.60
15556;DHT22;7879;48.660;9.116;2023-07-20T01:27:57;17.40;99.90
15556;DHT22;7879;48.660;9.116;2023-07-20T01:33:17;17.40;99.90
15556;DHT22;7879;48.660;9.116;2023-07-20T01:35:45;17.30;99.90
15556;DHT22;7879;48.660;9.116;2023-07-20T01:38:13;17.20;99.90
15556;DHT22;7879;48.660;9.116;2023-07-20T01:40:41;17.20;99.90
15556;DHT22;7879;48.660;9.116;2023-07-20T01:43:07;17.10;99.90
15556;DHT22;7879;48.660;9.116;2023-07-20T01:45:34;17.00;99.90
15556;DHT22;7879;48.660;9.116;2023-07-20T01:48:01;16.90;99.90
15556;DHT22;7879;48.660;9.116;2023-07-20T01:50:28;16.90;99.90
15556;DHT22;7879;48.660;9.116;2023-07-20T01:52:55;16.80;99.90
15556;DHT22;7879;48.660;9.116;2023-07-20T01:55:22;16.80;99.90
15556;DHT22;7879;48.660;9.116;2023-07-20T01:57:48;16.70;99.90
15556;DHT22;7879;48.660;9.116;2023-07-20T02:00:15;16.70;99.90
15556;DHT22;7879;48.660;9.116;2023-07-20T02:02:42;16.50;99.90
15556;DHT22;7879;48.660;9.116;2023-07-20T02:05:10;16.50;99.90
15556;DHT22;7879;48.660;9.116;2023-07-20T02:07:37;16.50;99.90
15556;DHT22;7879;48.660;9.116;2023-07-20T02:10:04;16.40;99.90
15556;DHT22;7879;48.660;9.116;2023-07-20T02:12:31;16.30;99.90
15556;DHT22;7879;48.660;9.116;2023-07-20T02:14:58;16.20;99.90
15556;DHT22;7879;48.660;9.116;2023-07-20T02:17:24;16.30;99.90
15556;DHT22;7879;48.660;9.116;2023-07-20T02:19:53;16.20;99.90
15556;DHT22;7879;48.660;9.116;2023-07-20T02:22:21;16.10;99.90
15556;DHT22;7879;48.660;9.116;2023-07-20T02:24:48;16.10;99.90
15556;DHT22;7879;48.660;9.116;2023-07-20T02:27:16;16.10;99.90
15556;DHT22;7879;48.660;9.116;2023-07-20T02:29:43;16.00;99.90
15556;DHT22;7879;48.660;9.116;2023-07-20T02:32:09;15.90;99.90
15556;DHT22;7879;48.660;9.116;2023-07-20T02:34:37;15.90;99.90
15556;DHT22;7879;48.660;9.116;2023-07-20T02:37:05;15.80;99.90
15556;DHT22;7879;48.660;9.116;2023-07-20T02:39:32;15.70;99.90
15556;DHT22;7879;48.660;9.116;2023-07-20T02:41:58;15.70;99.90
15556;DHT22;7879;48.660;9.116;2023-07-20T02:44:25;15.70;99.90
15556;DHT22;7879;48.660;9.116;2023-07-20T02:46:52;15.70;99.90
15556;DHT22;7879;48.660;9.116;2023-07-20T02:49:19;15.60;99.90
15556;DHT22;7879;48.660;9.116;2023-07-20T02:51:45;15.50;99.90
15556;DHT22;7879;48.660;9.116;2023-07-20T02:54:12;15.50;99.90
15556;DHT22;7879;48.660;9.116;2023-07-20T02:56:39;15.50;99.90
15556;DHT22;7879;48.660;9.116;2023-07-20T02:59:06;15.40;99.90
15556;DHT22;7879;48.660;9.116;2023-07-20T03:01:33;15.50;99.90
15556;DHT22;7879;48.660;9.116;2023-07-20T03:03:59;15.30;99.90
15556;DHT22;7879;48.660;9.116;2023-07-20T03:06:26;15.40;99.90
15556;DHT22;7879;48.660;9.116;2023-07-20T03:08:54;15.40;99.90
15556;DHT22;7879;48.660;9.116;2023-07-20T03:11:21;15.30;99.90
15556;DHT22;7879;48.660;9.116;2023-07-20T03:13:47;15.30;99.90
15556;DHT22;7879;48.660;9.116;2023-07-20T03:16:19;15.20;99.90
15556;DHT22;7879;48.660;9.116;2023-07-20T03:18:47;15.20;99.90
15556;DHT22;7879;48.660;9.116;2023-07-20T03:21:14;15.20;99.90
15556;DHT22;7879;48.660;9.116;2023-07-20T03:23:41;15.20;99.90
15556;DHT22;7879;48.660;9.116;2023-07-20T03:26:08;15.10;99.90
15556;DHT22;7879;48.660;9.116;2023-07-20T03:28:38;15.00;99.90
15556;DHT22;7879;48.660;9.116;2023-07-20T03:31:05;15.00;99.90
15556;DHT22;7879;48.660;9.116;2023-07-20T03:33:33;14.90;99.90
15556;DHT22;7879;48.660;9.116;2023-07-20T03:36:00;15.00;99.90
15556;DHT22;7879;48.660;9.116;2023-07-20T03:38:27;14.90;99.90
15556;DHT22;7879;48.660;9.116;2023-07-20T03:40:59;14.80;99.90
15556;DHT22;7879;48.660;9.116;2023-07-20T03:43:27;14.80;99.90
15556;DHT22;7879;48.660;9.116;2023-07-20T03:45:54;14.80;99.90
15556;DHT22;7879;48.660;9.116;2023-07-20T03:48:22;14.70;99.90
15556;DHT22;7879;48.660;9.116;2023-07-20T03:50:50;14.90;99.90
15556;DHT22;7879;48.660;9.116;2023-07-20T03:53:18;14.80;99.90
15556;DHT22;7879;48.660;9.116;2023-07-20T03:55:48;14.70;99.90
15556;DHT22;7879;48.660;9.116;2023-07-20T03:58:16;14.70;99.90
15556;DHT22;7879;48.660;9.116;2023-07-20T04:00:50;14.60;99.90
15556;DHT22;7879;48.660;9.116;2023-07-20T04:03:20;14.70;99.90
15556;DHT22;7879;48.660;9.116;2023-07-20T04:05:49;14.70;99.90
15556;DHT22;7879;48.660;9.116;2023-07-20T04:08:16;14.70;99.90
15556;DHT22;7879;48.660;9.116;2023-07-20T04:10:44;14.60;99.90
15556;DHT22;7879;48.660;9.116;2023-07-20T04:13:11;14.60;99.90
15556;DHT22;7879;48.660;9.116;2023-07-20T04:15:38;14.60;99.90
15556;DHT22;7879;48.660;9.116;2023-07-20T04:18:05;14.60;99.90
15556;DHT22;7879;48.660;9.116;2023-07-20T04:20:31;14.60;99.90
15556;DHT22;7879;48.660;9.116;2023-07-20T04:22:58;14.60;99.90
15556;DHT22;7879;48.660;9.116;2023-07-20T04:25:25;14.60;99.90
15556;DHT22;7879;48.660;9.116;2023-07-20T04:27:52;14.60;99.90
15556;DHT22;7879;48.660;9.116;2023-07-20T04:30:20;14.70;99.90
15556;DHT22;7879;48.660;9.116;2023-07-20T04:32:48;14.60;99.90
15556;DHT22;7879;48.660;9.116;2023-07-20T04:35:25;14.80;99.90
15556;DHT22;7879;48.660;9.116;2023-07-20T04:38:04;14.80;99.90
15556;DHT22;7879;48.660;9.116;2023-07-20T04:40:31;14.90;99.90
15556;DHT22;7879;48.660;9.116;2023-07-20T04:42:57;14.90;99.90
15556;DHT22;7879;48.660;9.116;2023-07-20T04:45:24;14.90;99.90
15556;DHT22;7879;48.660;9.116;2023-07-20T04:47:51;14.90;99.90
15556;DHT22;7879;48.660;9.116;2023-07-20T04:50:18;14.90;99.90
15556;DHT22;7879;48.660;9.116;2023-07-20T04:52:45;15.00;99.90
15556;DHT22;7879;48.660;9.116;2023-07-20T04:55:13;15.10;99.90
15556;DHT22;7879;48.660;9.116;2023-07-20T04:57:39;15.20;99.90
15556;DHT22;7879;48.660;9.116;2023-07-20T05:00:07;15.20;99.90
15556;DHT22;7879;48.660;9.116;2023-07-20T05:02:33;15.30;99.90
15556;DHT22;7879;48.660;9.116;2023-07-20T05:05:00;15.30;99.90
15556;DHT22;7879;48.660;9.116;2023-07-20T05:07:27;15.40;99.90
15556;DHT22;7879;48.660;9.116;2023-07-20T05:09:54;15.30;99.90
15556;DHT22;7879;48.660;9.116;2023-07-20T05:12:21;15.40;99.90
15556;DHT22;7879;48.660;9.116;2023-07-20T05:14:48;15.40;99.90
15556;DHT22;7879;48.660;9.116;2023-07-20T05:17:15;15.50;99.90
15556;DHT22;7879;48.660;9.116;2023-07-20T05:19:41;15.60;99.90
15556;DHT22;7879;48.660;9.116;2023-07-20T05:22:10;15.60;99.90
15556;DHT22;7879;48.660;9.116;2023-07-20T05:24:38;15.70;99.90
15556;DHT22;7879;48.660;9.116;2023-07-20T05:27:05;15.80;99.90
15556;DHT22;7879;48.660;9.116;2023-07-20T05:29:32;15.90;99.90
15556;DHT22;7879;48.660;9.116;2023-07-20T05:31:59;15.80;99.90
15556;DHT22;7879;48.660;9.116;2023-07-20T05:34:26;15.90;99.90
15556;DHT22;7879;48.660;9.116;2023-07-20T05:36:53;15.90;99.90
15556;DHT22;7879;48.660;9.116;2023-07-20T05:39:20;15.80;99.90
15556;DHT22;7879;48.660;9.116;2023-07-20T05:41:47;16.00;99.90
15556;DHT22;7879;48.660;9.116;2023-07-20T05:44:14;16.10;99.90
15556;DHT22;7879;48.660;9.116;2023-07-20T05:46:40;16.20;99.90
15556;DHT22;7879;48.660;9.116;2023-07-20T05:49:22;16.20;99.90
15556;DHT22;7879;48.660;9.116;2023-07-20T05:51:49;16.30;99.90
15556;DHT22;7879;48.660;9.116;2023-07-20T05:54:15;16.40;99.90
15556;DHT22;7879;48.660;9.116;2023-07-20T05:56:42;16.40;99.90
15556;DHT22;7879;48.660;9.116;2023-07-20T05:59:09;16.30;99.90
15556;DHT22;7879;48.660;9.116;2023-07-20T06:01:36;16.40;99.90
15556;DHT22;7879;48.660;9.116;2023-07-20T06:04:03;16.40;99.90
15556;DHT22;7879;48.660;9.116;2023-07-20T06:06:30;16.50;99.90
15556;DHT22;7879;48.660;9.116;2023-07-20T06:08:57;16.50;99.90
15556;DHT22;7879;48.660;9.116;2023-07-20T06:11:24;16.60;99.90
15556;DHT22;7879;48.660;9.116;2023-07-20T06:13:50;16.70;99.90
15556;DHT22;7879;48.660;9.116;2023-07-20T06:16:17;16.70;99.90
15556;DHT22;7879;48.660;9.116;2023-07-20T06:18:44;16.80;99.90
15556;DHT22;7879;48.660;9.116;2023-07-20T06:21:12;16.80;99.90
15556;DHT22;7879;48.660;9.116;2023-07-20T06:23:39;16.80;99.90
15556;DHT22;7879;48.660;9.116;2023-07-20T06:26:06;16.90;99.90
15556;DHT22;7879;48.660;9.116;2023-07-20T06:28:33;17.10;99.90
15556;DHT22;7879;48.660;9.116;2023-07-20T06:31:01;17.00;99.90
15556;DHT22;7879;48.660;9.116;2023-07-20T06:33:28;17.10;99.90
15556;DHT22;7879;48.660;9.116;2023-07-20T06:35:56;17.10;99.90
15556;DHT22;7879;48.660;9.116;2023-07-20T06:38:23;17.10;99.90
15556;DHT22;7879;48.660;9.116;2023-07-20T06:40:53;17.20;99.90
15556;DHT22;7879;48.660;9.116;2023-07-20T06:43:20;17.20;99.90
15556;DHT22;7879;48.660;9.116;2023-07-20T06:45:53;17.30;99.90
15556;DHT22;7879;48.660;9.116;2023-07-20T06:48:23;17.40;99.90
15556;DHT22;7879;48.660;9.116;2023-07-20T06:50:49;17.40;99.90
15556;DHT22;7879;48.660;9.116;2023-07-20T06:53:16;17.50;99.90
15556;DHT22;7879;48.660;9.116;2023-07-20T06:55:44;17.60;99.90
15556;DHT22;7879;48.660;9.116;2023-07-20T06:58:16;17.60;99.90
15556;DHT22;7879;48.660;9.116;2023-07-20T07:00:42;17.60;99.90
15556;DHT22;7879;48.660;9.116;2023-07-20T07:03:09;17.60;99.90
15556;DHT22;7879;48.660;9.116;2023-07-20T07:05:37;17.80;99.90
15556;DHT22;7879;48.660;9.116;2023-07-20T07:08:05;17.80;99.90
15556;DHT22;7879;48.660;9.116;2023-07-20T07:10:32;17.90;99.90
15556;DHT22;7879;48.660;9.116;2023-07-20T07:12:59;18.00;99.90
15556;DHT22;7879;48.660;9.116;2023-07-20T07:15:27;18.10;99.90
15556;DHT22;7879;48.660;9.116;2023-07-20T07:17:54;18.20;99.90
15556;DHT22;7879;48.660;9.116;2023-07-20T07:20:22;18.20;99.90
15556;DHT22;7879;48.660;9.116;2023-07-20T07:22:50;18.30;99.90
15556;DHT22;7879;48.660;9.116;2023-07-20T07:25:18;18.40;99.90
15556;DHT22;7879;48.660;9.116;2023-07-20T07:27:49;18.50;99.90
15556;DHT22;7879;48.660;9.116;2023-07-20T07:30:16;18.50;99.90
15556;DHT22;7879;48.660;9.116;2023-07-20T07:32:43;18.50;99.90
15556;DHT22;7879;48.660;9.116;2023-07-20T07:35:10;18.40;99.90
15556;DHT22;7879;48.660;9.116;2023-07-20T07:37:38;18.40;99.90
15556;DHT22;7879;48.660;9.116;2023-07-20T07:40:25;18.50;99.90
15556;DHT22;7879;48.660;9.116;2023-07-20T07:42:51;18.50;99.90
15556;DHT22;7879;48.660;9.116;2023-07-20T07:45:18;18.70;99.90
15556;DHT22;7879;48.660;9.116;2023-07-20T07:47:45;18.70;99.90
15556;DHT22;7879;48.660;9.116;2023-07-20T07:50:11;18.70;99.90
15556;DHT22;7879;48.660;9.116;2023-07-20T07:52:38;18.80;99.90
15556;DHT22;7879;48.660;9.116;2023-07-20T07:55:06;18.90;99.90
15556;DHT22;7879;48.660;9.116;2023-07-20T07:57:32;19.00;99.90
15556;DHT22;7879;48.660;9.116;2023-07-20T07:59:59;18.80;99.90
15556;DHT22;7879;48.660;9.116;2023-07-20T08:02:26;18.90;99.90
15556;DHT22;7879;48.660;9.116;2023-07-20T08:04:53;19.10;99.90
15556;DHT22;7879;48.660;9.116;2023-07-20T08:07:19;18.90;99.90
15556;DHT22;7879;48.660;9.116;2023-07-20T08:09:47;18.90;99.90
15556;DHT22;7879;48.660;9.116;2023-07-20T08:12:13;19.00;99.90
15556;DHT22;7879;48.660;9.116;2023-07-20T08:14:40;19.10;99.90
15556;DHT22;7879;48.660;9.116;2023-07-20T08:17:08;19.10;99.90
15556;DHT22;7879;48.660;9.116;2023-07-20T08:19:36;19.20;99.90
15556;DHT22;7879;48.660;9.116;2023-07-20T08:22:04;19.40;99.90
15556;DHT22;7879;48.660;9.116;2023-07-20T08:24:31;19.60;99.90
15556;DHT22;7879;48.660;9.116;2023-07-20T08:26:57;19.70;99.90
15556;DHT22;7879;48.660;9.116;2023-07-20T08:29:24;19.80;99.90
15556;DHT22;7879;48.660;9.116;2023-07-20T08:31:51;19.80;99.90
15556;DHT22;7879;48.660;9.116;2023-07-20T08:34:18;19.70;99.90
15556;DHT22;7879;48.660;9.116;2023-07-20T08:36:58;19.90;99.90
15556;DHT22;7879;48.660;9.116;2023-07-20T08:39:25;20.10;99.90
15556;DHT22;7879;48.660;9.116;2023-07-20T08:41:52;20.20;99.90
15556;DHT22;7879;48.660;9.116;2023-07-20T08:44:18;20.20;99.90
15556;DHT22;7879;48.660;9.116;2023-07-20T08:46:47;20.30;99.90
15556;DHT22;7879;48.660;9.116;2023-07-20T08:49:17;20.20;99.90
15556;DHT22;7879;48.660;9.116;2023-07-20T08:51:46;20.10;99.90
15556;DHT22;7879;48.660;9.116;2023-07-20T08:54:14;20.00;99.90
15556;DHT22;7879;48.660;9.116;2023-07-20T08:56:42;20.00;99.90
15556;DHT22;7879;48.660;9.116;2023-07-20T08:59:13;20.10;99.90
15556;DHT22;7879;48.660;9.116;2023-07-20T09:01:44;20.30;99.90
15556;DHT22;7879;48.660;9.116;2023-07-20T09:04:11;20.40;99.90
15556;DHT22;7879;48.660;9.116;2023-07-20T09:06:38;20.40;99.90
15556;DHT22;7879;48.660;9.116;2023-07-20T09:09:05;20.40;99.90
15556;DHT22;7879;48.660;9.116;2023-07-20T09:11:32;20.30;99.90
15556;DHT22;7879;48.660;9.116;2023-07-20T09:14:06;20.40;99.90
15556;DHT22;7879;48.660;9.116;2023-07-20T09:16:47;20.30;99.90
15556;DHT22;7879;48.660;9.116;2023-07-20T09:19:16;20.20;99.90
15556;DHT22;7879;48.660;9.116;2023-07-20T09:21:50;20.40;99.90
15556;DHT22;7879;48.660;9.116;2023-07-20T09:24:20;20.80;99.90
15556;DHT22;7879;48.660;9.116;2023-07-20T09:26:49;21.10;99.50
15556;DHT22;7879;48.660;9.116;2023-07-20T09:29:20;21.40;99.80
15556;DHT22;7879;48.660;9.116;2023-07-20T09:32:03;21.70;98.80
15556;DHT22;7879;48.660;9.116;2023-07-20T09:34:31;21.90;97.80
15556;DHT22;7879;48.660;9.116;2023-07-20T09:37:03;21.80;96.60
15556;DHT22;7879;48.660;9.116;2023-07-20T09:39:31;21.80;95.70
15556;DHT22;7879;48.660;9.116;2023-07-20T09:42:01;21.70;96.00
15556;DHT22;7879;48.660;9.116;2023-07-20T09:44:31;21.80;96.00
15556;DHT22;7879;48.660;9.116;2023-07-20T09:47:03;21.80;95.60
15556;DHT22;7879;48.660;9.116;2023-07-20T09:49:31;21.70;95.50
15556;DHT22;7879;48.660;9.116;2023-07-20T09:52:18;21.80;95.80
15556;DHT22;7879;48.660;9.116;2023-07-20T09:54:49;21.80;95.80
15556;DHT22;7879;48.660;9.116;2023-07-20T09:57:16;21.90;95.90
15556;DHT22;7879;48.660;9.116;2023-07-20T09:59:43;22.00;96.00
15556;DHT22;7879;48.660;9.116;2023-07-20T10:02:21;21.90;96.00
15556;DHT22;7879;48.660;9.116;2023-07-20T10:04:53;21.80;95.40
15556;DHT22;7879;48.660;9.116;2023-07-20T10:07:22;21.90;95.80
15556;DHT22;7879;48.660;9.116;2023-07-20T10:09:53;22.30;95.20
15556;DHT22;7879;48.660;9.116;2023-07-20T10:12:22;22.60;94.30
15556;DHT22;7879;48.660;9.116;2023-07-20T10:20:34;23.30;93.00
15556;DHT22;7879;48.660;9.116;2023-07-20T10:23:03;23.40;92.50
15556;DHT22;7879;48.660;9.116;2023-07-20T10:25:30;23.50;91.30
15556;DHT22;7879;48.660;9.116;2023-07-20T10:27:59;23.70;90.70
15556;DHT22;7879;48.660;9.116;2023-07-20T10:30:26;23.50;90.80
15556;DHT22;7879;48.660;9.116;2023-07-20T10:32:53;23.60;91.40
15556;DHT22;7879;48.660;9.116;2023-07-20T10:35:20;23.50;91.00
15556;DHT22;7879;48.660;9.116;2023-07-20T10:37:55;23.20;90.70
15556;DHT22;7879;48.660;9.116;2023-07-20T10:43:02;23.30;90.90
15556;DHT22;7879;48.660;9.116;2023-07-20T10:45:40;23.50;91.00
15556;DHT22;7879;48.660;9.116;2023-07-20T10:48:16;23.80;90.10
15556;DHT22;7879;48.660;9.116;2023-07-20T10:50:43;24.00;89.20
15556;DHT22;7879;48.660;9.116;2023-07-20T10:53:12;24.20;88.90
15556;DHT22;7879;48.660;9.116;2023-07-20T10:55:42;24.30;89.30
15556;DHT22;7879;48.660;9.116;2023-07-20T10:58:14;24.20;87.40
15556;DHT22;7879;48.660;9.116;2023-07-20T11:01:02;24.10;87.50
15556;DHT22;7879;48.660;9.116;2023-07-20T11:03:31;24.20;85.60
15556;DHT22;7879;48.660;9.116;2023-07-20T11:06:35;24.20;86.60
15556;DHT22;7879;48.660;9.116;2023-07-20T11:11:39;24.70;84.70
15556;DHT22;7879;48.660;9.116;2023-07-20T11:14:30;24.50;84.60
15556;DHT22;7879;48.660;9.116;2023-07-20T11:17:11;24.70;84.00
15556;DHT22;7879;48.660;9.116;2023-07-20T11:19:39;24.90;81.90
15556;DHT22;7879;48.660;9.116;2023-07-20T11:22:12;24.60;80.20
15556;DHT22;7879;48.660;9.116;2023-07-20T11:24:40;24.20;81.00
15556;DHT22;7879;48.660;9.116;2023-07-20T11:27:07;24.20;81.30
15556;DHT22;7879;48.660;9.116;2023-07-20T11:29:35;24.30;82.00
15556;DHT22;7879;48.660;9.116;2023-07-20T11:32:03;24.60;81.70
15556;DHT22;7879;48.660;9.116;2023-07-20T11:34:32;24.70;80.40
15556;DHT22;7879;48.660;9.116;2023-07-20T11:37:00;24.60;80.30
15556;DHT22;7879;48.660;9.116;2023-07-20T11:39:30;24.40;80.30
15556;DHT22;7879;48.660;9.116;2023-07-20T11:41:57;24.20;78.80
15556;DHT22;7879;48.660;9.116;2023-07-20T11:44:26;24.30;80.60
15556;DHT22;7879;48.660;9.116;2023-07-20T11:47:11;24.60;79.10
15556;DHT22;7879;48.660;9.116;2023-07-20T11:49:42;24.70;79.50
15556;DHT22;7879;48.660;9.116;2023-07-20T11:52:14;25.20;79.40
15556;DHT22;7879;48.660;9.116;2023-07-20T11:54:42;25.40;77.80
15556;DHT22;7879;48.660;9.116;2023-07-20T11:57:18;25.20;77.00
15556;DHT22;7879;48.660;9.116;2023-07-20T12:00:02;24.90;76.30
15556;DHT22;7879;48.660;9.116;2023-07-20T12:02:38;24.50;76.50
15556;DHT22;7879;48.660;9.116;2023-07-20T12:05:06;24.50;78.00
15556;DHT22;7879;48.660;9.116;2023-07-20T12:07:35;24.90;78.00
15556;DHT22;7879;48.660;9.116;2023-07-20T12:10:10;25.10;77.20
15556;DHT22;7879;48.660;9.116;2023-07-20T12:12:39;25.10;75.90
15556;DHT22;7879;48.660;9.116;2023-07-20T12:15:23;24.80;75.20
15556;DHT22;7879;48.660;9.116;2023-07-20T12:17:56;24.70;76.50
15556;DHT22;7879;48.660;9.116;2023-07-20T12:20:34;24.80;76.10
15556;DHT22;7879;48.660;9.116;2023-07-20T12:25:43;25.00;75.80
15556;DHT22;7879;48.660;9.116;2023-07-20T12:28:12;25.10;75.10
15556;DHT22;7879;48.660;9.116;2023-07-20T12:30:41;25.20;74.70
15556;DHT22;7879;48.660;9.116;2023-07-20T12:33:08;25.40;74.20
15556;DHT22;7879;48.660;9.116;2023-07-20T12:35:35;25.50;73.90
15556;DHT22;7879;48.660;9.116;2023-07-20T12:38:02;25.50;74.00
15556;DHT22;7879;48.660;9.116;2023-07-20T12:40:29;25.60;72.70
15556;DHT22;7879;48.660;9.116;2023-07-20T12:42:57;25.60;72.40
15556;DHT22;7879;48.660;9.116;2023-07-20T12:45:24;25.40;72.30
15556;DHT22;7879;48.660;9.116;2023-07-20T12:47:50;25.60;73.30
15556;DHT22;7879;48.660;9.116;2023-07-20T12:50:17;25.60;72.00
15556;DHT22;7879;48.660;9.116;2023-07-20T12:52:44;25.40;72.20
15556;DHT22;7879;48.660;9.116;2023-07-20T12:55:11;25.30;73.00
15556;DHT22;7879;48.660;9.116;2023-07-20T12:57:38;25.10;71.80
15556;DHT22;7879;48.660;9.116;2023-07-20T13:00:09;25.10;71.50
15556;DHT22;7879;48.660;9.116;2023-07-20T13:02:38;25.40;72.70
15556;DHT22;7879;48.660;9.116;2023-07-20T13:05:05;25.60;73.70
15556;DHT22;7879;48.660;9.116;2023-07-20T13:07:37;25.70;71.90
15556;DHT22;7879;48.660;9.116;2023-07-20T13:10:08;25.60;72.10
15556;DHT22;7879;48.660;9.116;2023-07-20T13:12:35;25.60;71.10
15556;DHT22;7879;48.660;9.116;2023-07-20T13:15:04;25.60;71.80
15556;DHT22;7879;48.660;9.116;2023-07-20T13:17:36;25.60;71.00
15556;DHT22;7879;48.660;9.116;2023-07-20T13:20:04;25.70;71.70
15556;DHT22;7879;48.660;9.116;2023-07-20T13:22:32;25.90;72.70
15556;DHT22;7879;48.660;9.116;2023-07-20T13:24:59;25.90;70.60
15556;DHT22;7879;48.660;9.116;2023-07-20T13:27:27;26.00;69.90
15556;DHT22;7879;48.660;9.116;2023-07-20T13:29:54;26.00;69.50
15556;DHT22;7879;48.660;9.116;2023-07-20T13:32:23;25.90;68.90
15556;DHT22;7879;48.660;9.116;2023-07-20T13:34:51;25.90;69.20
15556;DHT22;7879;48.660;9.116;2023-07-20T13:37:18;25.90;68.40
15556;DHT22;7879;48.660;9.116;2023-07-20T13:39:48;25.90;69.70
15556;DHT22;7879;48.660;9.116;2023-07-20T13:42:15;26.00;68.90
15556;DHT22;7879;48.660;9.116;2023-07-20T13:44:45;26.20;69.50
15556;DHT22;7879;48.660;9.116;2023-07-20T13:47:13;26.10;69.30
15556;DHT22;7879;48.660;9.116;2023-07-20T13:49:43;26.10;68.80
15556;DHT22;7879;48.660;9.116;2023-07-20T13:52:14;25.90;68.40
15556;DHT22;7879;48.660;9.116;2023-07-20T13:54:44;25.90;68.40
15556;DHT22;7879;48.660;9.116;2023-07-20T13:57:17;25.70;68.80
15556;DHT22;7879;48.660;9.116;2023-07-20T13:59:44;25.80;69.30
15556;DHT22;7879;48.660;9.116;2023-07-20T14:02:14;25.90;69.30
15556;DHT22;7879;48.660;9.116;2023-07-20T14:04:44;26.00;68.30
15556;DHT22;7879;48.660;9.116;2023-07-20T14:07:11;26.10;69.40
15556;DHT22;7879;48.660;9.116;2023-07-20T14:09:39;26.20;68.70
15556;DHT22;7879;48.660;9.116;2023-07-20T14:12:26;26.20;66.70
15556;DHT22;7879;48.660;9.116;2023-07-20T14:14:54;26.20;67.70
15556;DHT22;7879;48.660;9.116;2023-07-20T14:17:22;26.20;65.30
15556;DHT22;7879;48.660;9.116;2023-07-20T14:19:50;26.10;65.90
15556;DHT22;7879;48.660;9.116;2023-07-20T14:22:17;26.00;65.70
15556;DHT22;7879;48.660;9.116;2023-07-20T14:24:45;25.90;67.40
15556;DHT22;7879;48.660;9.116;2023-07-20T14:27:12;26.00;67.20
15556;DHT22;7879;48.660;9.116;2023-07-20T14:29:39;26.00;66.10
15556;DHT22;7879;48.660;9.116;2023-07-20T14:32:06;25.90;66.60
15556;DHT22;7879;48.660;9.116;2023-07-20T14:34:34;26.00;67.50
15556;DHT22;7879;48.660;9.116;2023-07-20T14:37:05;26.10;66.60
15556;DHT22;7879;48.660;9.116;2023-07-20T14:39:32;26.10;66.00
15556;DHT22;7879;48.660;9.116;2023-07-20T14:41:59;26.00;66.00
15556;DHT22;7879;48.660;9.116;2023-07-20T14:44:25;25.80;65.60
15556;DHT22;7879;48.660;9.116;2023-07-20T14:46:52;25.70;65.60
15556;DHT22;7879;48.660;9.116;2023-07-20T14:49:39;25.70;66.00
15556;DHT22;7879;48.660;9.116;2023-07-20T14:52:06;25.80;65.60
15556;DHT22;7879;48.660;9.116;2023-07-20T14:54:41;25.90;65.50
15556;DHT22;7879;48.660;9.116;2023-07-20T14:57:08;25.80;65.00
15556;DHT22;7879;48.660;9.116;2023-07-20T14:59:41;25.90;66.10
15556;DHT22;7879;48.660;9.116;2023-07-20T15:02:11;25.80;66.50
15556;DHT22;7879;48.660;9.116;2023-07-20T15:04:51;25.90;66.30
15556;DHT22;7879;48.660;9.116;2023-07-20T15:07:19;25.80;66.30
15556;DHT22;7879;48.660;9.116;2023-07-20T15:09:46;25.80;66.00
15556;DHT22;7879;48.660;9.116;2023-07-20T15:12:13;25.90;67.60
15556;DHT22;7879;48.660;9.116;2023-07-20T15:14:41;25.90;66.20
15556;DHT22;7879;48.660;9.116;2023-07-20T15:17:10;25.90;66.50
15556;DHT22;7879;48.660;9.116;2023-07-20T15:19:37;25.90;67.00
15556;DHT22;7879;48.660;9.116;2023-07-20T15:22:05;25.80;65.90
15556;DHT22;7879;48.660;9.116;2023-07-20T15:24:33;25.60;66.40
15556;DHT22;7879;48.660;9.116;2023-07-20T15:27:00;25.60;66.70
15556;DHT22;7879;48.660;9.116;2023-07-20T15:29:30;25.70;66.80
15556;DHT22;7879;48.660;9.116;2023-07-20T15:32:00;25.60;66.60
15556;DHT22;7879;48.660;9.116;2023-07-20T15:34:27;25.60;66.60
15556;DHT22;7879;48.660;9.116;2023-07-20T15:36:54;25.60;67.20
15556;DHT22;7879;48.660;9.116;2023-07-20T15:39:22;25.60;67.00
15556;DHT22;7879;48.660;9.116;2023-07-20T15:41:50;25.50;66.90
15556;DHT22;7879;48.660;9.116;2023-07-20T15:44:17;25.60;67.40
15556;DHT22;7879;48.660;9.116;2023-07-20T15:46:46;25.70;67.60
15556;DHT22;7879;48.660;9.116;2023-07-20T15:49:15;25.70;66.50
15556;DHT22;7879;48.660;9.116;2023-07-20T15:51:43;25.50;67.20
15556;DHT22;7879;48.660;9.116;2023-07-20T15:54:13;25.40;66.70
15556;DHT22;7879;48.660;9.116;2023-07-20T15:56:41;25.40;66.50
15556;DHT22;7879;48.660;9.116;2023-07-20T15:59:10;25.30;67.10
15556;DHT22;7879;48.660;9.116;2023-07-20T16:01:38;25.30;66.90
15556;DHT22;7879;48.660;9.116;2023-07-20T16:04:06;25.40;67.10
15556;DHT22;7879;48.660;9.116;2023-07-20T16:06:33;25.30;67.40
15556;DHT22;7879;48.660;9.116;2023-07-20T16:09:03;25.30;66.90
15556;DHT22;7879;48.660;9.116;2023-07-20T16:11:33;25.30;67.90
15556;DHT22;7879;48.660;9.116;2023-07-20T16:14:05;25.40;67.70
15556;DHT22;7879;48.660;9.116;2023-07-20T16:16:34;25.40;67.00